Time;durP1;ratioP1;P1;durP2;ratioP2;P2;SDS_P1;SDS_P2;PMS_P1;PMS_P2;Temp;Humidity;BMP_temperature;BMP_pressure;BME280_temperature;BME280_humidity;BME280_pressure;Samples;Min_cycle;Max_cycle;Signal;HPM_P1;HPM_P2
2023/01/29 00:01:38;;;;;;;;;;;;;;;6.07;50.00;99771.59;4489105;31;33185;-87
2023/01/29 00:04:05;;;;;;;;;;;;;;;5.44;51.82;99771.50;4490408;31;33728;-84
2023/01/29 00:06:32;;;;;;;;;;;;;;;5.50;51.60;99770.91;4462737;32;34452;-86
2023/01/29 00:09:00;;;;;;;;;;;;;;;6.64;48.89;99772.09;4469600;32;34983;-87
2023/01/29 00:11:27;;;;;;;;;;;;;;;7.41;46.77;99767.16;4491113;31;34003;-84
2023/01/29 00:13:54;;;;;;;;;;;;;;;7.08;47.31;99772.84;4471677;31;34062;-84
2023/01/29 00:16:22;;;;;;;;;;;;;;;6.87;47.48;99774.66;4483527;31;34779;-86
2023/01/29 00:18:49;;;;;;;;;;;;;;;7.28;46.76;99784.78;4487333;31;34277;-83
2023/01/29 00:21:17;;;;;;;;;;;;;;;6.85;47.41;99782.31;4489472;31;33467;-87
2023/01/29 00:23:44;;;;;;;;;;;;;;;6.82;47.45;99790.84;4477550;32;34054;-85
2023/01/29 00:26:12;;;;;;;;;;;;;;;7.41;46.57;99791.25;4472762;31;34793;-86
2023/01/29 00:28:40;;;;;;;;;;;;;;;7.09;47.19;99787.53;4475820;32;34291;-86
2023/01/29 00:31:08;;;;;;;;;;;;;;;6.32;48.78;99794.91;4487204;31;34685;-85
2023/01/29 00:33:36;;;;;;;;;;;;;;;5.93;50.19;99794.19;4494746;31;33753;-84
2023/01/29 00:36:04;;;;;;;;;;;;;;;6.69;48.47;99798.91;4477836;31;33578;-86
2023/01/29 00:38:32;;;;;;;;;;;;;;;6.15;48.67;99801.09;4472699;32;33294;-88
2023/01/29 00:46:39;;;;;;;;;;;;;;;6.77;48.37;99802.66;4488020;31;34605;-88
2023/01/29 00:49:07;;;;;;;;;;;;;;;7.37;46.81;99798.81;4490285;31;35137;-86
2023/01/29 00:51:35;;;;;;;;;;;;;;;6.58;47.95;99807.94;4488798;31;33855;-83
2023/01/29 00:54:05;;;;;;;;;;;;;;;6.64;48.34;99807.31;4481553;31;34938;-85
2023/01/29 00:56:36;;;;;;;;;;;;;;;6.78;47.93;99809.59;4479562;31;34479;-87
2023/01/29 00:59:03;;;;;;;;;;;;;;;5.62;50.90;99805.72;4471289;31;35011;-82
2023/01/29 01:04:16;;;;;;;;;;;;;;;7.19;46.94;99809.34;4484711;31;34288;-82
2023/01/29 01:06:44;;;;;;;;;;;;;;;7.25;46.42;99805.31;4488814;31;34313;-82
2023/01/29 01:11:57;;;;;;;;;;;;;;;7.73;45.28;99794.97;4487280;31;33715;-86
2023/01/29 01:14:24;;;;;;;;;;;;;;;8.06;44.52;99796.88;4486982;31;34179;-84
2023/01/29 01:16:51;;;;;;;;;;;;;;;8.23;44.20;99789.72;4487783;31;34090;-85
2023/01/29 01:19:19;;;;;;;;;;;;;;;8.52;43.49;99791.53;4489585;31;34899;-87
2023/01/29 01:21:47;;;;;;;;;;;;;;;8.77;42.99;99787.97;4490935;31;33508;-83
2023/01/29 01:24:14;;;;;;;;;;;;;;;9.07;42.16;99789.69;4488388;31;34252;-84
2023/01/29 01:26:41;;;;;;;;;;;;;;;9.19;41.65;99797.81;4491918;31;34592;-85
2023/01/29 01:29:09;;;;;;;;;;;;;;;9.18;41.41;99798.66;4490700;31;35004;-84
2023/01/29 01:31:36;;;;;;;;;;;;;;;9.26;41.31;99794.56;4486892;31;34225;-85
2023/01/29 01:34:03;;;;;;;;;;;;;;;9.15;41.20;99792.50;4487487;31;34923;-85
2023/01/29 01:36:31;;;;;;;;;;;;;;;9.01;41.54;99794.69;4475554;31;33999;-90
2023/01/29 01:38:58;;;;;;;;;;;;;;;8.41;42.54;99797.16;4486589;31;34213;-86
2023/01/29 01:41:26;;;;;;;;;;;;;;;8.00;43.23;99804.44;4487383;31;34200;-86
2023/01/29 01:43:54;;;;;;;;;;;;;;;8.19;43.06;99800.78;4486247;31;34883;-83
2023/01/29 01:46:22;;;;;;;;;;;;;;;7.74;44.15;99808.72;4476356;31;32598;-85
2023/01/29 01:48:52;;;;;;;;;;;;;;;7.24;45.38;99825.87;4484842;31;34100;-84
2023/01/29 01:51:19;;;;;;;;;;;;;;;7.55;44.23;99817.53;4471540;31;35365;-87
2023/01/29 01:53:49;;;;;;;;;;;;;;;6.65;46.58;99825.37;4493749;31;34099;-85
2023/01/29 01:56:23;;;;;;;;;;;;;;;7.17;45.74;99822.19;4495795;31;34192;-84
2023/01/29 01:58:52;;;;;;;;;;;;;;;7.25;45.39;99818.19;4488932;31;34476;-85
2023/01/29 02:01:26;;;;;;;;;;;;;;;6.50;47.02;99822.22;4473656;31;33260;-84
2023/01/29 02:09:40;;;;;;;;;;;;;;;6.15;47.69;99823.38;4488188;31;34234;-83
2023/01/29 02:12:09;;;;;;;;;;;;;;;6.54;46.63;99818.94;4473918;31;34202;-83
2023/01/29 02:14:39;;;;;;;;;;;;;;;6.44;47.17;99821.94;4470873;31;33714;-84
2023/01/29 02:17:07;;;;;;;;;;;;;;;6.76;46.06;99826.69;4472362;31;34461;-85
2023/01/29 02:19:38;;;;;;;;;;;;;;;6.79;46.00;99823.34;4470510;31;33996;-87
2023/01/29 02:22:27;;;;;;;;;;;;;;;5.60;48.42;99834.75;4487366;31;32986;-83
2023/01/29 02:25:10;;;;;;;;;;;;;;;6.57;46.78;99826.78;4442282;31;33835;-86
2023/01/29 02:27:47;;;;;;;;;;;;;;;6.60;46.23;99826.91;4484261;31;35142;-85
2023/01/29 02:30:16;;;;;;;;;;;;;;;5.49;48.51;99834.31;4485984;31;34352;-86
2023/01/29 02:33:06;;;;;;;;;;;;;;;5.96;47.76;99838.06;4473807;31;33360;-83
2023/01/29 02:35:44;;;;;;;;;;;;;;;5.28;49.53;99841.94;4485276;31;34637;-84
2023/01/29 02:38:34;;;;;;;;;;;;;;;6.06;47.74;99839.31;4485539;31;34083;-83
2023/01/29 02:41:04;;;;;;;;;;;;;;;6.06;47.56;99841.87;4472905;31;32789;-84
2023/01/29 02:43:34;;;;;;;;;;;;;;;6.55;46.33;99834.47;4475277;31;33759;-86
2023/01/29 02:46:22;;;;;;;;;;;;;;;6.49;46.42;99841.06;4489819;31;34346;-85
2023/01/29 02:49:10;;;;;;;;;;;;;;;5.08;49.78;99837.62;4475003;31;35201;-85
2023/01/29 02:51:41;;;;;;;;;;;;;;;5.73;48.40;99846.47;4479703;31;35190;-85
2023/01/29 02:54:26;;;;;;;;;;;;;;;6.53;46.18;99845.53;4492265;31;34435;-82
2023/01/29 02:57:03;;;;;;;;;;;;;;;6.71;45.85;99842.78;4475562;31;34190;-84
2023/01/29 02:59:48;;;;;;;;;;;;;;;6.70;45.58;99849.63;4472325;31;32602;-85
2023/01/29 03:02:20;;;;;;;;;;;;;;;7.17;44.83;99845.41;4489813;31;34020;-86
2023/01/29 03:04:52;;;;;;;;;;;;;;;5.52;48.08;99857.56;4478390;31;33465;-86
2023/01/29 03:10:12;;;;;;;;;;;;;;;5.91;47.79;99861.78;4476061;31;34985;-85
2023/01/29 03:12:40;;;;;;;;;;;;;;;5.35;49.25;99862.00;4474059;31;34319;-84
2023/01/29 03:15:10;;;;;;;;;;;;;;;5.35;49.61;99859.41;4489120;31;34169;-84
2023/01/29 03:17:57;;;;;;;;;;;;;;;5.20;49.50;99868.12;4474571;31;32568;-82
2023/01/29 03:20:28;;;;;;;;;;;;;;;6.02;47.73;99866.63;4484242;31;34175;-82
2023/01/29 03:22:57;;;;;;;;;;;;;;;4.73;51.09;99869.38;4474252;31;34212;-83
2023/01/29 03:33:55;;;;;;;;;;;;;;;6.65;46.37;99869.19;4477108;31;33828;-82
2023/01/29 03:36:26;;;;;;;;;;;;;;;6.80;45.82;99866.31;4483118;31;33389;-83
2023/01/29 03:38:53;;;;;;;;;;;;;;;6.46;46.70;99874.41;4470382;31;34144;-82
2023/01/29 03:41:31;;;;;;;;;;;;;;;5.66;48.29;99881.34;4485761;31;34181;-82
2023/01/29 03:43:59;;;;;;;;;;;;;;;5.77;48.43;99874.97;4458555;31;33945;-82
2023/01/29 03:46:37;;;;;;;;;;;;;;;5.71;48.87;99877.25;4486227;31;33374;-82
2023/01/29 03:49:07;;;;;;;;;;;;;;;6.16;47.48;99877.50;4470026;31;35019;-84
2023/01/29 03:51:40;;;;;;;;;;;;;;;5.69;48.42;99881.47;4487184;31;35158;-83
2023/01/29 03:54:13;;;;;;;;;;;;;;;6.20;47.00;99883.66;4484926;31;34570;-84
2023/01/29 03:56:58;;;;;;;;;;;;;;;5.83;48.60;99884.63;4489533;31;33538;-83
2023/01/29 03:59:35;;;;;;;;;;;;;;;6.32;47.43;99887.59;4470570;31;33502;-84
2023/01/29 04:02:04;;;;;;;;;;;;;;;6.01;47.95;99887.16;4471300;31;34743;-82
2023/01/29 04:04:32;;;;;;;;;;;;;;;5.52;48.94;99885.00;4483954;31;35556;-82
2023/01/29 04:07:03;;;;;;;;;;;;;;;5.67;48.79;99882.22;4478247;31;33467;-80
2023/01/29 04:09:31;;;;;;;;;;;;;;;5.92;48.04;99884.16;4489572;31;35050;-81
2023/01/29 04:12:09;;;;;;;;;;;;;;;4.34;51.97;99888.06;4471146;31;36703;-81
2023/01/29 04:14:36;;;;;;;;;;;;;;;5.76;49.07;99877.47;4486925;31;33798;-82
2023/01/29 04:17:23;;;;;;;;;;;;;;;6.20;47.65;99881.06;4472600;31;32337;-81
2023/01/29 04:19:51;;;;;;;;;;;;;;;6.20;47.48;99881.94;4491079;31;33755;-81
2023/01/29 04:22:23;;;;;;;;;;;;;;;6.11;47.36;99886.72;4482776;31;35481;-81
2023/01/29 04:24:50;;;;;;;;;;;;;;;6.28;47.37;99885.72;4473812;32;33660;-81
2023/01/29 04:27:19;;;;;;;;;;;;;;;6.52;46.50;99879.84;4475625;31;33434;-83
2023/01/29 04:29:49;;;;;;;;;;;;;;;5.93;47.57;99875.66;4499529;31;34041;-84
2023/01/29 04:32:16;;;;;;;;;;;;;;;6.10;47.63;99872.09;4477304;31;34341;-83
2023/01/29 04:34:55;;;;;;;;;;;;;;;5.29;49.57;99869.41;4494377;31;34367;-83
2023/01/29 04:37:41;;;;;;;;;;;;;;;5.73;48.65;99867.94;4489674;31;33665;-83
2023/01/29 04:40:17;;;;;;;;;;;;;;;5.21;49.58;99875.91;4484907;31;34956;-82
2023/01/29 04:42:51;;;;;;;;;;;;;;;4.66;50.75;99881.06;4483445;31;33830;-81
2023/01/29 04:45:24;;;;;;;;;;;;;;;5.15;49.72;99872.16;4475550;32;34325;-82
2023/01/29 04:48:14;;;;;;;;;;;;;;;5.41;49.25;99878.50;4488348;31;33282;-81
2023/01/29 04:50:54;;;;;;;;;;;;;;;6.13;47.44;99879.94;4469819;32;34739;-83
2023/01/29 04:53:27;;;;;;;;;;;;;;;6.03;47.35;99883.84;4470135;31;34183;-81
2023/01/29 04:55:57;;;;;;;;;;;;;;;6.02;47.64;99886.31;4491714;31;35401;-85
2023/01/29 04:58:24;;;;;;;;;;;;;;;5.68;48.30;99889.97;4486890;31;34347;-85
2023/01/29 05:00:52;;;;;;;;;;;;;;;5.44;48.53;99876.94;4492821;31;33585;-83
2023/01/29 05:03:20;;;;;;;;;;;;;;;5.28;48.99;99882.22;4475780;31;33794;-85
2023/01/29 05:05:48;;;;;;;;;;;;;;;5.81;47.73;99887.16;4476357;31;34228;-84
2023/01/29 05:08:17;;;;;;;;;;;;;;;5.63;48.18;99881.19;4475025;31;33705;-82
2023/01/29 05:10:44;;;;;;;;;;;;;;;5.76;47.35;99880.06;4475803;31;33961;-84
2023/01/29 05:13:12;;;;;;;;;;;;;;;5.58;48.14;99881.00;4479140;31;35068;-84
2023/01/29 05:16:03;;;;;;;;;;;;;;;5.61;48.65;99881.16;4477490;31;34949;-84
2023/01/29 05:18:34;;;;;;;;;;;;;;;4.98;50.21;99882.56;4485775;31;32957;-85
2023/01/29 05:21:03;;;;;;;;;;;;;;;4.44;51.70;99883.41;4496868;31;34969;-84
2023/01/29 05:23:30;;;;;;;;;;;;;;;5.36;49.75;99876.59;4475880;31;34261;-83
2023/01/29 05:25:57;;;;;;;;;;;;;;;4.82;51.01;99885.25;4496000;31;34207;-84
2023/01/29 05:28:24;;;;;;;;;;;;;;;5.66;49.17;99881.34;4485690;31;33294;-85
2023/01/29 05:30:53;;;;;;;;;;;;;;;5.13;50.80;99882.38;4485875;31;34086;-84
2023/01/29 05:33:25;;;;;;;;;;;;;;;5.34;50.34;99870.53;4490168;31;34273;-84
2023/01/29 05:35:52;;;;;;;;;;;;;;;5.16;51.04;99871.37;4487582;31;34092;-84
2023/01/29 05:38:20;;;;;;;;;;;;;;;5.27;50.37;99871.06;4490975;31;33520;-83
2023/01/29 05:40:47;;;;;;;;;;;;;;;4.88;51.47;99881.25;4484356;31;34060;-85
2023/01/29 05:43:16;;;;;;;;;;;;;;;5.82;49.19;99878.59;4487911;31;35328;-84
2023/01/29 05:45:50;;;;;;;;;;;;;;;6.03;49.09;99873.53;4482168;31;34627;-84
2023/01/29 05:48:18;;;;;;;;;;;;;;;5.55;50.03;99882.56;4482599;32;33208;-87
2023/01/29 05:50:45;;;;;;;;;;;;;;;5.95;49.28;99887.78;4485002;31;34800;-85
2023/01/29 05:53:12;;;;;;;;;;;;;;;5.31;50.59;99883.22;4473908;31;34088;-85
2023/01/29 05:55:42;;;;;;;;;;;;;;;4.69;52.81;99883.75;4490011;31;34276;-83
2023/01/29 05:58:10;;;;;;;;;;;;;;;5.32;51.00;99882.41;4487198;31;32992;-82
2023/01/29 06:00:37;;;;;;;;;;;;;;;4.43;53.36;99897.03;4489059;31;34904;-82
2023/01/29 06:03:04;;;;;;;;;;;;;;;4.32;53.13;99897.41;4487530;31;34144;-81
2023/01/29 06:05:32;;;;;;;;;;;;;;;5.27;51.34;99890.75;4498230;31;34319;-83
2023/01/29 06:07:59;;;;;;;;;;;;;;;5.20;51.47;99896.41;4498616;31;36232;-84
2023/01/29 06:10:26;;;;;;;;;;;;;;;4.62;52.83;99899.69;4493357;31;34964;-84
2023/01/29 06:12:53;;;;;;;;;;;;;;;5.63;50.41;99901.78;4485727;31;34648;-82
2023/01/29 06:15:20;;;;;;;;;;;;;;;4.69;52.42;99906.88;4487274;31;33461;-82
2023/01/29 06:17:48;;;;;;;;;;;;;;;4.45;53.15;99913.41;4492644;31;33623;-83
2023/01/29 06:20:15;;;;;;;;;;;;;;;5.19;51.45;99913.53;4490493;31;33822;-84
2023/01/29 06:22:43;;;;;;;;;;;;;;;5.08;51.82;99914.72;4487471;31;34110;-81
2023/01/29 06:25:10;;;;;;;;;;;;;;;5.20;51.21;99912.72;4492700;31;34141;-84
2023/01/29 06:27:37;;;;;;;;;;;;;;;4.43;53.39;99922.69;4485961;31;33418;-85
2023/01/29 06:30:05;;;;;;;;;;;;;;;5.59;50.52;99920.47;4476534;31;34980;-85
2023/01/29 06:32:32;;;;;;;;;;;;;;;5.20;51.44;99930.72;4479465;31;35123;-85
2023/01/29 06:35:00;;;;;;;;;;;;;;;4.96;51.77;99932.13;4486460;31;34759;-85
2023/01/29 06:37:27;;;;;;;;;;;;;;;5.13;51.21;99933.78;4493194;31;33289;-83
2023/01/29 06:39:54;;;;;;;;;;;;;;;5.35;51.03;99943.38;4492652;31;34157;-83
2023/01/29 06:42:26;;;;;;;;;;;;;;;5.19;51.41;99946.94;4489675;31;34394;-83
2023/01/29 06:44:54;;;;;;;;;;;;;;;4.58;52.72;99959.41;4492320;31;33998;-84
2023/01/29 06:47:22;;;;;;;;;;;;;;;4.23;53.48;99958.53;4487996;31;33000;-84
2023/01/29 06:49:49;;;;;;;;;;;;;;;4.85;51.87;99950.50;4482210;31;34165;-84
2023/01/29 06:52:16;;;;;;;;;;;;;;;4.63;52.66;99956.28;4486791;31;34983;-84
2023/01/29 06:54:43;;;;;;;;;;;;;;;5.00;51.41;99958.06;4483199;32;35045;-86
2023/01/29 06:57:11;;;;;;;;;;;;;;;5.02;51.75;99955.53;4490386;31;33573;-85
2023/01/29 06:59:38;;;;;;;;;;;;;;;4.39;52.79;99961.09;4487407;31;34996;-84
2023/01/29 07:02:05;;;;;;;;;;;;;;;5.89;49.58;99948.34;4484433;31;35266;-86
2023/01/29 07:04:34;;;;;;;;;;;;;;;5.29;50.28;99954.25;4484803;31;34206;-86
2023/01/29 07:07:02;;;;;;;;;;;;;;;4.41;52.61;99963.72;4487890;31;34131;-85
2023/01/29 07:09:29;;;;;;;;;;;;;;;4.34;52.79;99949.69;4493459;31;33968;-86
2023/01/29 07:11:58;;;;;;;;;;;;;;;3.05;56.43;99956.56;4487747;31;34327;-84
2023/01/29 07:14:25;;;;;;;;;;;;;;;4.56;52.39;99948.19;4482943;32;35008;-87
2023/01/29 07:16:52;;;;;;;;;;;;;;;3.99;53.79;99957.31;4483987;31;34082;-85
2023/01/29 07:19:19;;;;;;;;;;;;;;;4.19;53.03;99959.19;4490000;31;34291;-84
2023/01/29 07:21:47;;;;;;;;;;;;;;;5.19;50.79;99949.53;4485144;31;34086;-84
2023/01/29 07:24:15;;;;;;;;;;;;;;;5.47;49.96;99954.22;4489107;31;34531;-84
2023/01/29 07:26:42;;;;;;;;;;;;;;;5.34;49.58;99952.78;4483920;31;34136;-83
2023/01/29 07:29:09;;;;;;;;;;;;;;;4.76;51.57;99947.47;4493579;31;33934;-81
2023/01/29 07:31:37;;;;;;;;;;;;;;;5.19;49.65;99939.22;4472507;31;34408;-83
2023/01/29 07:34:04;;;;;;;;;;;;;;;4.65;51.55;99938.34;4484586;32;34956;-84
2023/01/29 07:36:31;;;;;;;;;;;;;;;4.85;51.23;99934.19;4487733;31;34104;-84
2023/01/29 07:38:58;;;;;;;;;;;;;;;5.53;49.27;99915.94;4493159;31;34077;-83
2023/01/29 07:41:26;;;;;;;;;;;;;;;5.40;49.57;99918.75;4487900;31;34333;-84
2023/01/29 07:43:53;;;;;;;;;;;;;;;5.41;49.45;99917.06;4487164;31;34398;-82
2023/01/29 07:46:20;;;;;;;;;;;;;;;4.60;50.52;99919.28;4494542;31;32090;-84
2023/01/29 07:48:48;;;;;;;;;;;;;;;5.29;49.39;99915.69;4491252;31;34465;-86
2023/01/29 07:51:17;;;;;;;;;;;;;;;4.94;49.55;99915.75;4489719;31;34300;-85
2023/01/29 07:53:45;;;;;;;;;;;;;;;4.88;49.90;99917.22;4491461;31;34429;-84
2023/01/29 07:56:12;;;;;;;;;;;;;;;3.98;52.62;99928.19;4489916;31;33615;-84
2023/01/29 07:58:39;;;;;;;;;;;;;;;5.07;50.38;99924.09;4493367;31;34305;-83
2023/01/29 08:01:06;;;;;;;;;;;;;;;4.54;51.13;99919.84;4492233;31;35273;-83
2023/01/29 08:03:34;;;;;;;;;;;;;;;4.96;49.38;99929.53;4486971;31;34979;-86
2023/01/29 08:06:02;;;;;;;;;;;;;;;5.02;49.42;99929.84;4500054;31;33255;-86
2023/01/29 08:08:29;;;;;;;;;;;;;;;5.19;48.85;99922.91;4479645;31;33972;-83
2023/01/29 08:10:59;;;;;;;;;;;;;;;3.40;52.12;99922.59;4492025;31;34922;-84
2023/01/29 08:13:26;;;;;;;;;;;;;;;3.19;53.43;99917.22;4495134;31;34197;-84
2023/01/29 08:15:53;;;;;;;;;;;;;;;3.60;52.67;99926.22;4484010;31;33468;-85
2023/01/29 08:18:20;;;;;;;;;;;;;;;3.37;52.99;99931.00;4493835;31;34217;-84
2023/01/29 08:20:48;;;;;;;;;;;;;;;3.56;53.91;99940.56;4488615;31;35207;-87
2023/01/29 08:23:15;;;;;;;;;;;;;;;3.53;53.49;99934.38;4498400;31;34210;-85
2023/01/29 08:25:43;;;;;;;;;;;;;;;4.06;51.65;99928.59;4491830;31;33125;-82
2023/01/29 08:28:11;;;;;;;;;;;;;;;3.92;51.72;99939.81;4496282;31;34856;-84
2023/01/29 08:30:38;;;;;;;;;;;;;;;4.13;51.93;99938.38;4492888;31;34422;-85
2023/01/29 08:33:06;;;;;;;;;;;;;;;3.79;52.84;99936.62;4498592;31;33824;-86
2023/01/29 08:35:33;;;;;;;;;;;;;;;4.06;51.19;99941.41;4484359;31;34275;-85
2023/01/29 08:38:02;;;;;;;;;;;;;;;4.42;50.39;99946.63;4488236;31;34165;-85
2023/01/29 08:40:30;;;;;;;;;;;;;;;3.63;52.46;99946.88;4485318;31;35121;-86
2023/01/29 08:43:00;;;;;;;;;;;;;;;2.93;54.03;99944.84;4489455;31;34530;-86
2023/01/29 08:45:30;;;;;;;;;;;;;;;3.14;54.49;99964.72;4485255;31;34423;-85
2023/01/29 08:47:57;;;;;;;;;;;;;;;3.46;53.01;99965.63;4484964;31;34983;-86
2023/01/29 08:50:24;;;;;;;;;;;;;;;3.28;53.61;99965.50;4473525;31;34247;-82
2023/01/29 08:52:55;;;;;;;;;;;;;;;3.99;51.31;99975.25;4486581;31;35229;-85
2023/01/29 08:55:22;;;;;;;;;;;;;;;3.51;52.43;99969.31;4472186;31;32654;-85
2023/01/29 08:57:50;;;;;;;;;;;;;;;3.57;53.37;99974.78;4493751;31;34129;-83
2023/01/29 09:00:17;;;;;;;;;;;;;;;4.00;50.93;99979.56;4478895;32;35108;-86
2023/01/29 09:02:45;;;;;;;;;;;;;;;3.58;52.40;99984.22;4484598;31;33937;-83
2023/01/29 09:05:12;;;;;;;;;;;;;;;4.16;51.04;99987.25;4484026;31;33130;-86
2023/01/29 09:07:39;;;;;;;;;;;;;;;3.73;52.04;99990.16;4469137;31;33754;-86
2023/01/29 09:10:07;;;;;;;;;;;;;;;3.92;51.39;99991.13;4483611;31;33603;-84
2023/01/29 09:12:34;;;;;;;;;;;;;;;3.26;52.46;99987.59;4487415;31;34112;-83
2023/01/29 09:15:02;;;;;;;;;;;;;;;4.37;50.56;99993.50;4492559;31;33415;-86
2023/01/29 09:17:29;;;;;;;;;;;;;;;3.44;52.67;99990.28;4474143;32;33914;-85
2023/01/29 09:19:57;;;;;;;;;;;;;;;3.86;51.53;99989.09;4474671;31;34382;-85
2023/01/29 09:22:25;;;;;;;;;;;;;;;3.95;50.26;99981.91;4495834;31;33856;-83
2023/01/29 09:24:52;;;;;;;;;;;;;;;3.53;50.94;99991.66;4484358;31;32813;-84
2023/01/29 09:27:19;;;;;;;;;;;;;;;3.30;52.09;100000.69;4485855;31;33863;-84
2023/01/29 09:29:46;;;;;;;;;;;;;;;4.17;50.16;99994.19;4487291;31;34062;-83
2023/01/29 09:32:14;;;;;;;;;;;;;;;4.09;50.55;99991.22;4488647;31;34786;-82
2023/01/29 09:34:45;;;;;;;;;;;;;;;3.73;50.48;99985.03;4496283;31;34473;-83
2023/01/29 09:37:16;;;;;;;;;;;;;;;2.96;51.44;99982.56;4486267;31;35089;-82
2023/01/29 09:39:43;;;;;;;;;;;;;;;3.47;51.71;99993.00;4496386;31;33626;-83
2023/01/29 09:42:12;;;;;;;;;;;;;;;3.29;51.83;100001.44;4489013;31;33815;-83
2023/01/29 09:44:39;;;;;;;;;;;;;;;3.68;50.84;100004.44;4472946;32;34378;-82
2023/01/29 09:47:08;;;;;;;;;;;;;;;3.66;50.67;99999.19;4486540;31;34196;-81
2023/01/29 09:49:38;;;;;;;;;;;;;;;4.21;50.01;100000.34;4471091;32;35195;-82
2023/01/29 09:52:25;;;;;;;;;;;;;;;4.11;48.70;99998.97;4470014;32;33862;-82
2023/01/29 09:55:11;;;;;;;;;;;;;;;2.98;51.98;100000.56;4475241;31;32987;-85
2023/01/29 09:57:45;;;;;;;;;;;;;;;3.10;51.89;100009.81;4499506;31;33478;-83
2023/01/29 10:00:31;;;;;;;;;;;;;;;4.25;48.66;100009.97;4475500;31;34281;-83
2023/01/29 10:03:08;;;;;;;;;;;;;;;3.86;49.63;100007.97;4485064;31;34189;-86
2023/01/29 10:05:38;;;;;;;;;;;;;;;4.50;49.05;100014.63;4469509;31;33472;-81
2023/01/29 10:08:17;;;;;;;;;;;;;;;3.59;50.31;100012.50;4489337;31;35074;-83
2023/01/29 10:10:57;;;;;;;;;;;;;;;4.06;49.55;100018.41;4485193;31;33770;-82
2023/01/29 10:13:36;;;;;;;;;;;;;;;4.04;49.16;100019.97;4480631;31;34030;-85
2023/01/29 10:16:17;;;;;;;;;;;;;;;4.13;51.57;100023.94;4492178;31;33561;-83
2023/01/29 10:18:48;;;;;;;;;;;;;;;4.45;48.05;100011.84;4496185;31;34398;-84
2023/01/29 10:21:24;;;;;;;;;;;;;;;4.01;48.48;100014.69;4488620;31;33597;-84
2023/01/29 10:24:23;;;;;;;;;;;;;;;3.72;49.19;100014.06;4493171;31;34359;-83
2023/01/29 10:26:51;;;;;;;;;;;;;;;5.25;46.13;100013.19;4450916;31;33323;-84
2023/01/29 10:29:20;;;;;;;;;;;;;;;4.79;47.03;100019.53;4490547;31;33616;-84
2023/01/29 10:31:49;;;;;;;;;;;;;;;4.86;46.40;100013.91;4480219;32;33933;-83
2023/01/29 10:34:30;;;;;;;;;;;;;;;3.93;48.56;100009.16;4485571;31;33959;-85
2023/01/29 10:36:58;;;;;;;;;;;;;;;4.16;47.85;100020.63;4481816;32;32847;-84
2023/01/29 10:39:25;;;;;;;;;;;;;;;4.04;48.51;100012.28;4479999;32;35048;-84
2023/01/29 10:41:56;;;;;;;;;;;;;;;4.78;46.67;100010.09;4480089;32;34419;-85
2023/01/29 10:44:26;;;;;;;;;;;;;;;4.28;47.52;100011.00;4493943;31;35210;-85
2023/01/29 10:46:56;;;;;;;;;;;;;;;4.84;45.96;100012.94;4468759;32;33473;-85
2023/01/29 10:49:39;;;;;;;;;;;;;;;4.37;46.82;100000.31;4492258;31;35009;-85
2023/01/29 10:52:06;;;;;;;;;;;;;;;5.64;44.54;99990.09;4497418;31;34320;-83
2023/01/29 10:54:53;;;;;;;;;;;;;;;5.08;44.52;99986.69;4493540;31;34205;-84
2023/01/29 10:57:23;;;;;;;;;;;;;;;3.59;47.14;99985.97;4484355;31;34078;-80
2023/01/29 11:00:09;;;;;;;;;;;;;;;4.03;47.08;99988.31;4483331;31;34273;-84
2023/01/29 11:02:36;;;;;;;;;;;;;;;4.00;47.60;99979.56;4457911;31;35082;-84
2023/01/29 11:05:04;;;;;;;;;;;;;;;4.08;47.14;99980.84;4490628;31;34407;-83
2023/01/29 11:07:32;;;;;;;;;;;;;;;4.34;47.04;99975.34;4478105;31;33374;-83
2023/01/29 11:09:59;;;;;;;;;;;;;;;4.72;46.12;99963.53;4476471;31;34171;-84
2023/01/29 11:12:29;;;;;;;;;;;;;;;4.38;46.26;99964.44;4485442;31;33837;-83
2023/01/29 11:14:59;;;;;;;;;;;;;;;4.64;45.35;99965.72;4486212;31;33849;-80
2023/01/29 11:17:26;;;;;;;;;;;;;;;4.63;45.15;99956.28;4487574;31;33108;-81
2023/01/29 11:19:57;;;;;;;;;;;;;;;3.70;47.22;99966.03;4490734;31;34695;-82
2023/01/29 11:22:27;;;;;;;;;;;;;;;4.05;46.68;99957.59;4491756;31;33757;-82
2023/01/29 11:25:08;;;;;;;;;;;;;;;5.41;43.51;99946.22;4492538;31;34272;-82
2023/01/29 11:27:43;;;;;;;;;;;;;;;5.30;43.48;99947.41;4476439;32;33210;-80
2023/01/29 11:30:27;;;;;;;;;;;;;;;4.41;44.81;99937.16;4476457;31;35103;-81
2023/01/29 11:32:56;;;;;;;;;;;;;;;4.63;45.37;99934.84;4482864;32;34810;-83
2023/01/29 11:35:24;;;;;;;;;;;;;;;4.78;45.56;99933.03;4485061;31;34247;-81
2023/01/29 11:37:51;;;;;;;;;;;;;;;5.57;43.15;99928.12;4477671;32;33383;-82
2023/01/29 11:40:19;;;;;;;;;;;;;;;4.90;43.95;99917.31;4489413;31;34830;-81
2023/01/29 11:42:47;;;;;;;;;;;;;;;4.14;45.66;99928.16;4487417;31;35247;-81
2023/01/29 11:45:32;;;;;;;;;;;;;;;4.68;43.78;99917.97;4471339;31;33808;-83
2023/01/29 11:48:00;;;;;;;;;;;;;;;5.26;42.58;99915.53;4485436;31;32103;-81
2023/01/29 11:50:31;;;;;;;;;;;;;;;4.78;43.37;99915.03;4482627;31;34206;-81
2023/01/29 11:52:58;;;;;;;;;;;;;;;5.26;42.28;99897.53;4486539;31;34118;-85
2023/01/29 11:55:27;;;;;;;;;;;;;;;4.86;42.35;99898.28;4485124;31;33886;-83
2023/01/29 11:58:06;;;;;;;;;;;;;;;4.91;43.00;99892.47;4460007;31;31917;-82
2023/01/29 12:00:35;;;;;;;;;;;;;;;5.49;41.05;99885.75;4481949;31;33950;-81
2023/01/29 12:03:35;;;;;;;;;;;;;;;5.42;41.37;99887.94;4495793;31;34427;-82
2023/01/29 12:06:05;;;;;;;;;;;;;;;6.06;40.17;99889.13;4468027;31;34078;-82
2023/01/29 12:08:36;;;;;;;;;;;;;;;5.44;41.73;99878.63;4469181;32;33246;-81
2023/01/29 12:11:11;;;;;;;;;;;;;;;5.12;41.59;99889.22;4483711;31;33950;-81
2023/01/29 12:13:41;;;;;;;;;;;;;;;5.11;42.28;99886.56;4481185;31;34128;-80
2023/01/29 12:16:12;;;;;;;;;;;;;;;4.74;43.47;99882.31;4483916;31;35199;-80
2023/01/29 12:18:41;;;;;;;;;;;;;;;4.04;44.49;99884.00;4483858;32;33827;-81
2023/01/29 12:21:29;;;;;;;;;;;;;;;4.42;43.53;99882.44;4470340;31;34041;-83
2023/01/29 12:24:00;;;;;;;;;;;;;;;5.09;42.46;99877.94;4485270;31;34445;-80
2023/01/29 12:26:34;;;;;;;;;;;;;;;5.06;41.15;99870.06;4469683;32;34903;-81
2023/01/29 12:29:08;;;;;;;;;;;;;;;4.03;43.92;99882.25;4484310;32;33373;-80
2023/01/29 12:31:42;;;;;;;;;;;;;;;4.15;43.42;99873.47;4484683;31;34974;-80
2023/01/29 12:34:16;;;;;;;;;;;;;;;3.77;44.47;99879.25;4490928;31;34933;-82
2023/01/29 12:36:45;;;;;;;;;;;;;;;2.91;45.35;99866.16;4490933;31;35112;-81
2023/01/29 12:39:15;;;;;;;;;;;;;;;3.22;44.66;99871.25;4495164;31;33082;-80
2023/01/29 12:41:44;;;;;;;;;;;;;;;3.10;45.79;99870.56;4475887;31;34868;-80
2023/01/29 12:44:15;;;;;;;;;;;;;;;4.22;42.72;99869.53;4473852;32;35324;-81
2023/01/29 12:46:47;;;;;;;;;;;;;;;3.83;43.72;99869.31;4495262;31;34082;-81
2023/01/29 12:49:16;;;;;;;;;;;;;;;3.28;45.53;99875.81;4479934;32;33492;-81
2023/01/29 12:51:47;;;;;;;;;;;;;;;4.16;43.79;99853.81;4472287;31;35022;-81
2023/01/29 12:54:17;;;;;;;;;;;;;;;4.65;42.92;99856.16;4491618;31;33911;-82
2023/01/29 12:56:46;;;;;;;;;;;;;;;4.87;42.30;99856.37;4472254;31;31971;-80
2023/01/29 12:59:20;;;;;;;;;;;;;;;4.67;42.83;99848.56;4469680;32;33218;-81
2023/01/29 13:01:49;;;;;;;;;;;;;;;4.98;40.50;99853.44;4471092;31;34010;-81
2023/01/29 13:04:20;;;;;;;;;;;;;;;5.26;40.83;99840.13;4470100;32;34134;-80
2023/01/29 13:06:49;;;;;;;;;;;;;;;3.90;43.85;99848.28;4472637;31;33721;-81
2023/01/29 13:09:22;;;;;;;;;;;;;;;4.76;42.14;99839.56;4475725;31;32861;-82
2023/01/29 13:11:55;;;;;;;;;;;;;;;4.00;42.16;99830.78;4472277;31;33887;-80
2023/01/29 13:14:41;;;;;;;;;;;;;;;5.45;40.20;99828.94;4488685;31;34843;-80
2023/01/29 13:17:11;;;;;;;;;;;;;;;4.95;41.44;99832.72;4490831;31;34338;-81
2023/01/29 13:19:42;;;;;;;;;;;;;;;4.99;41.54;99821.78;4470864;31;31670;-81
2023/01/29 13:22:26;;;;;;;;;;;;;;;5.11;40.77;99817.16;4480282;31;33864;-81
2023/01/29 13:24:55;;;;;;;;;;;;;;;4.94;42.53;99818.13;4476767;32;34244;-81
2023/01/29 13:27:34;;;;;;;;;;;;;;;4.33;43.01;99818.72;4493185;31;33929;-81
2023/01/29 13:30:04;;;;;;;;;;;;;;;3.57;43.50;99811.56;4486915;31;33311;-81
2023/01/29 13:32:33;;;;;;;;;;;;;;;3.68;43.65;99814.69;4470930;32;35109;-81
2023/01/29 13:35:02;;;;;;;;;;;;;;;4.32;41.75;99804.13;4473716;31;35206;-79
2023/01/29 13:37:33;;;;;;;;;;;;;;;4.97;41.81;99797.72;4485220;31;33731;-81
2023/01/29 13:40:02;;;;;;;;;;;;;;;4.92;40.42;99791.47;4485265;31;33291;-81
2023/01/29 13:42:39;;;;;;;;;;;;;;;3.78;43.71;99804.06;4485150;31;33877;-81